Time;durP1;ratioP1;P1;durP2;ratioP2;P2;SDS_P1;SDS_P2;PMS_P1;PMS_P2;Temp;Humidity;BMP_temperature;BMP_pressure;BME280_temperature;BME280_humidity;BME280_pressure;Samples;Min_cycle;Max_cycle;Signal;HPM_P1;HPM_P2
2023/05/22 00:02:06;;;;;;;;;;;;;;;;;;5076624;28;19959;-70
2023/05/22 00:04:32;;;;;;;;;;;;;;;;;;5094724;28;19975;-70
2023/05/22 00:06:58;;;;;;;;;;;;;;;;;;5095061;28;20005;-69
2023/05/22 00:09:25;;;;;;;;;;;;;;;;;;5094734;28;20409;-70
2023/05/22 00:11:50;;;;;;;;;;;;;;;;;;5094981;28;19955;-70
2023/05/22 00:14:16;;;;;;;;;;;;;;;;;;5094633;28;19962;-69
2023/05/22 00:16:42;;;;;;;;;;;;;;;;;;5095171;28;20401;-69
2023/05/22 00:19:11;;;;;;;;;;;;;;;;;;5094856;28;20009;-69
2023/05/22 00:21:37;;;;;;;;;;;;;;;;;;5094488;28;20010;-69
2023/05/22 00:24:03;;;;;;;;;;;;;;;;;;5094677;28;20022;-69
2023/05/22 00:26:29;;;;;;;;;;;;;;;;;;5094663;28;20000;-69
2023/05/22 00:28:55;;;;;;;;;;;;;;;;;;5094659;28;19962;-70
2023/05/22 00:31:21;;;;;;;;;;;;;;;;;;5094247;28;20337;-70
2023/05/22 00:33:47;;;;;;;;;;;;;;;;;;5094574;28;19966;-69
2023/05/22 00:36:13;;;;;;;;;;;;;;;;;;5094802;28;19956;-69
2023/05/22 00:38:39;;;;;;;;;;;;;;;;;;5094802;28;20356;-69
2023/05/22 00:41:05;;;;;;;;;;;;;;;;;;5093535;28;20013;-69
2023/05/22 00:43:31;;;;;;;;;;;;;;;;;;5094647;28;19979;-69
2023/05/22 00:45:57;;;;;;;;;;;;;;;;;;5094086;28;19959;-70
2023/05/22 00:48:23;;;;;;;;;;;;;;;;;;5094335;28;20005;-69
2023/05/22 00:50:49;;;;;;;;;;;;;;;;;;5094023;28;19990;-69
2023/05/22 00:53:15;;;;;;;;;;;;;;;;;;5094268;28;19962;-69
2023/05/22 00:55:41;;;;;;;;;;;;;;;;;;5093969;28;19995;-70
2023/05/22 00:58:07;;;;;;;;;;;;;;;;;;5093962;28;20112;-69
2023/05/22 01:00:33;;;;;;;;;;;;;;;;;;5093922;28;19955;-69
2023/05/22 01:02:59;;;;;;;;;;;;;;;;;;5094050;28;19975;-70
2023/05/22 01:05:25;;;;;;;;;;;;;;;;;;5094124;28;19959;-69
2023/05/22 01:07:52;;;;;;;;;;;;;;;;;;5094328;28;19955;-69
2023/05/22 01:10:18;;;;;;;;;;;;;;;;;;5094078;28;19959;-69
2023/05/22 01:12:43;;;;;;;;;;;;;;;;;;5093788;28;19956;-70
2023/05/22 01:15:10;;;;;;;;;;;;;;;;;;5093792;28;20468;-69
2023/05/22 01:17:36;;;;;;;;;;;;;;;;;;5093986;28;19955;-69
2023/05/22 01:20:06;;;;;;;;;;;;;;;;;;5093971;28;19955;-69
2023/05/22 01:22:32;;;;;;;;;;;;;;;;;;5094165;28;19962;-69
2023/05/22 01:24:57;;;;;;;;;;;;;;;;;;5093634;28;19959;-69
2023/05/22 01:27:27;;;;;;;;;;;;;;;;;;5094163;28;19990;-69
2023/05/22 01:29:53;;;;;;;;;;;;;;;;;;5093959;28;19959;-69
2023/05/22 01:32:19;;;;;;;;;;;;;;;;;;5093534;28;19971;-69
2023/05/22 01:34:45;;;;;;;;;;;;;;;;;;5093838;28;19955;-69
2023/05/22 01:37:12;;;;;;;;;;;;;;;;;;5094327;28;19962;-69
2023/05/22 01:39:38;;;;;;;;;;;;;;;;;;5075070;28;19995;-69
2023/05/22 01:42:04;;;;;;;;;;;;;;;;;;5093492;28;20049;-69
2023/05/22 01:44:30;;;;;;;;;;;;;;;;;;5093929;28;19975;-69
2023/05/22 01:46:59;;;;;;;;;;;;;;;;;;5093772;28;19959;-69
2023/05/22 01:49:25;;;;;;;;;;;;;;;;;;5094016;28;20054;-69
2023/05/22 01:51:51;;;;;;;;;;;;;;;;;;5094292;28;20468;-69
2023/05/22 01:54:17;;;;;;;;;;;;;;;;;;5097333;28;20371;-69
2023/05/22 01:56:43;;;;;;;;;;;;;;;;;;5097315;28;19955;-69
2023/05/22 01:59:09;;;;;;;;;;;;;;;;;;5097251;28;19955;-69
2023/05/22 02:01:35;;;;;;;;;;;;;;;;;;5097233;28;19959;-70
2023/05/22 02:04:01;;;;;;;;;;;;;;;;;;5097158;28;19979;-69
2023/05/22 02:06:27;;;;;;;;;;;;;;;;;;5097164;28;19960;-69
2023/05/22 02:08:53;;;;;;;;;;;;;;;;;;5097355;28;19962;-69
2023/05/22 02:11:20;;;;;;;;;;;;;;;;;;5097024;28;19955;-69
2023/05/22 02:13:46;;;;;;;;;;;;;;;;;;5097029;28;19962;-69
2023/05/22 02:16:12;;;;;;;;;;;;;;;;;;5097541;28;20375;-69
2023/05/22 02:18:40;;;;;;;;;;;;;;;;;;5097179;28;19990;-69
2023/05/22 02:21:07;;;;;;;;;;;;;;;;;;5096905;28;20050;-69
2023/05/22 02:23:33;;;;;;;;;;;;;;;;;;5096990;28;19982;-69
2023/05/22 02:25:59;;;;;;;;;;;;;;;;;;5096781;28;20329;-69
2023/05/22 02:28:25;;;;;;;;;;;;;;;;;;5096709;28;19959;-69
2023/05/22 02:30:51;;;;;;;;;;;;;;;;;;5097065;28;20438;-69
2023/05/22 02:33:17;;;;;;;;;;;;;;;;;;5096603;28;20306;-70
2023/05/22 02:35:43;;;;;;;;;;;;;;;;;;5096604;28;19963;-69
2023/05/22 02:38:09;;;;;;;;;;;;;;;;;;5097023;28;19955;-69
2023/05/22 02:40:35;;;;;;;;;;;;;;;;;;5096309;28;20456;-69
2023/05/22 02:43:01;;;;;;;;;;;;;;;;;;5096608;28;19975;-69
2023/05/22 02:45:26;;;;;;;;;;;;;;;;;;5096657;28;19963;-69
2023/05/22 02:47:52;;;;;;;;;;;;;;;;;;5096923;28;20004;-69
2023/05/22 02:50:18;;;;;;;;;;;;;;;;;;5096322;28;20000;-69
2023/05/22 02:52:44;;;;;;;;;;;;;;;;;;5096277;28;19961;-69
2023/05/22 02:55:10;;;;;;;;;;;;;;;;;;5096503;28;19955;-69
2023/05/22 02:57:36;;;;;;;;;;;;;;;;;;5096179;28;19963;-69
2023/05/22 03:00:02;;;;;;;;;;;;;;;;;;5096679;28;19955;-69
2023/05/22 03:02:31;;;;;;;;;;;;;;;;;;5096317;28;19986;-69
2023/05/22 03:04:58;;;;;;;;;;;;;;;;;;5096510;28;19955;-69
2023/05/22 03:07:25;;;;;;;;;;;;;;;;;;5095999;28;19977;-69
2023/05/22 03:09:51;;;;;;;;;;;;;;;;;;5077544;28;19959;-69
2023/05/22 03:12:17;;;;;;;;;;;;;;;;;;5095874;28;20543;-69
2023/05/22 03:14:42;;;;;;;;;;;;;;;;;;5095817;28;19961;-69
2023/05/22 03:17:08;;;;;;;;;;;;;;;;;;5096352;28;20309;-69
2023/05/22 03:19:34;;;;;;;;;;;;;;;;;;5095722;28;20435;-69
2023/05/22 03:22:00;;;;;;;;;;;;;;;;;;5095683;28;20004;-69
2023/05/22 03:24:26;;;;;;;;;;;;;;;;;;5095593;28;20344;-69
2023/05/22 03:26:52;;;;;;;;;;;;;;;;;;5095908;28;19994;-69
2023/05/22 03:29:18;;;;;;;;;;;;;;;;;;5096378;28;19990;-69
2023/05/22 03:31:44;;;;;;;;;;;;;;;;;;5095398;28;19972;-69
2023/05/22 03:34:10;;;;;;;;;;;;;;;;;;5095462;28;19955;-69
2023/05/22 03:36:36;;;;;;;;;;;;;;;;;;5096433;28;19962;-69
2023/05/22 03:39:01;;;;;;;;;;;;;;;;;;5077036;28;19970;-69
2023/05/22 03:41:27;;;;;;;;;;;;;;;;;;5095940;28;20019;-69
2023/05/22 03:43:53;;;;;;;;;;;;;;;;;;5095518;28;19975;-69
2023/05/22 03:46:20;;;;;;;;;;;;;;;;;;5095252;28;20049;-69
2023/05/22 03:48:46;;;;;;;;;;;;;;;;;;5076768;28;19959;-69
2023/05/22 03:51:12;;;;;;;;;;;;;;;;;;5095118;28;19961;-69
2023/05/22 03:53:38;;;;;;;;;;;;;;;;;;5095675;28;20321;-69
2023/05/22 03:56:04;;;;;;;;;;;;;;;;;;5095020;28;20448;-69
2023/05/22 03:58:30;;;;;;;;;;;;;;;;;;5095557;28;19998;-69
2023/05/22 04:00:59;;;;;;;;;;;;;;;;;;5094931;28;19955;-69
2023/05/22 04:03:25;;;;;;;;;;;;;;;;;;5094790;28;19982;-69
2023/05/22 04:05:51;;;;;;;;;;;;;;;;;;5095124;28;19956;-69
2023/05/22 04:08:17;;;;;;;;;;;;;;;;;;5094772;28;19959;-69
2023/05/22 04:10:45;;;;;;;;;;;;;;;;;;5095304;28;19955;-69
2023/05/22 04:13:11;;;;;;;;;;;;;;;;;;5094979;28;20005;-69
2023/05/22 04:15:37;;;;;;;;;;;;;;;;;;5094712;28;19955;-69
2023/05/22 04:18:02;;;;;;;;;;;;;;;;;;5076438;28;19966;-69
2023/05/22 04:20:28;;;;;;;;;;;;;;;;;;5094832;28;19955;-69
2023/05/22 04:22:54;;;;;;;;;;;;;;;;;;5094447;28;20433;-69
2023/05/22 04:25:20;;;;;;;;;;;;;;;;;;5094799;28;19959;-69
2023/05/22 04:27:49;;;;;;;;;;;;;;;;;;5076270;28;19959;-69
2023/05/22 04:30:15;;;;;;;;;;;;;;;;;;5094411;28;20004;-69
2023/05/22 04:32:42;;;;;;;;;;;;;;;;;;5094281;28;20036;-69
2023/05/22 04:35:08;;;;;;;;;;;;;;;;;;5094306;28;19959;-69
2023/05/22 04:37:35;;;;;;;;;;;;;;;;;;5094778;28;20005;-69
2023/05/22 04:40:06;;;;;;;;;;;;;;;;;;5094075;28;20047;-69
2023/05/22 04:42:33;;;;;;;;;;;;;;;;;;5094512;28;20361;-69
2023/05/22 04:44:59;;;;;;;;;;;;;;;;;;5094453;28;19956;-69
2023/05/22 04:47:27;;;;;;;;;;;;;;;;;;5094104;28;19963;-69
2023/05/22 04:49:53;;;;;;;;;;;;;;;;;;5094091;28;19962;-69
2023/05/22 04:52:20;;;;;;;;;;;;;;;;;;5094075;28;19963;-69
2023/05/22 04:54:46;;;;;;;;;;;;;;;;;;5094290;28;19983;-70
2023/05/22 04:57:12;;;;;;;;;;;;;;;;;;5093953;28;19962;-69
2023/05/22 04:59:38;;;;;;;;;;;;;;;;;;5093955;28;19955;-69
2023/05/22 05:02:04;;;;;;;;;;;;;;;;;;5093917;28;19955;-69
2023/05/22 05:04:30;;;;;;;;;;;;;;;;;;5093821;28;19975;-69
2023/05/22 05:06:57;;;;;;;;;;;;;;;;;;5094412;28;19962;-69
2023/05/22 05:09:23;;;;;;;;;;;;;;;;;;5094158;28;20046;-70
2023/05/22 05:11:49;;;;;;;;;;;;;;;;;;5093775;28;19997;-69
2023/05/22 05:14:15;;;;;;;;;;;;;;;;;;5094343;28;19955;-69
2023/05/22 05:16:41;;;;;;;;;;;;;;;;;;5094018;28;19978;-69
2023/05/22 05:19:07;;;;;;;;;;;;;;;;;;5093701;28;20468;-70
2023/05/22 05:21:33;;;;;;;;;;;;;;;;;;5093679;28;19963;-70
2023/05/22 05:23:59;;;;;;;;;;;;;;;;;;5093843;28;19975;-69
2023/05/22 05:26:25;;;;;;;;;;;;;;;;;;5093955;28;19955;-69
2023/05/22 05:28:51;;;;;;;;;;;;;;;;;;5079364;28;19967;-69
2023/05/22 05:31:17;;;;;;;;;;;;;;;;;;5097950;28;19979;-69
2023/05/22 05:33:43;;;;;;;;;;;;;;;;;;5097816;28;19955;-69
2023/05/22 05:36:09;;;;;;;;;;;;;;;;;;5098317;28;19955;-69
2023/05/22 05:38:35;;;;;;;;;;;;;;;;;;5098495;28;20004;-69
2023/05/22 05:41:01;;;;;;;;;;;;;;;;;;5097270;28;20055;-69
2023/05/22 05:43:27;;;;;;;;;;;;;;;;;;5098084;28;19975;-70
2023/05/22 05:45:53;;;;;;;;;;;;;;;;;;5097518;28;19962;-69
2023/05/22 05:48:19;;;;;;;;;;;;;;;;;;5097540;28;20023;-69
2023/05/22 05:50:45;;;;;;;;;;;;;;;;;;5097745;28;19959;-69
2023/05/22 05:53:11;;;;;;;;;;;;;;;;;;5097695;28;20007;-70
2023/05/22 05:55:37;;;;;;;;;;;;;;;;;;5097973;28;19965;-70
2023/05/22 05:58:03;;;;;;;;;;;;;;;;;;5097301;28;20318;-70
2023/05/22 06:00:29;;;;;;;;;;;;;;;;;;5097292;28;20000;-70
2023/05/22 06:02:55;;;;;;;;;;;;;;;;;;5097438;28;20022;-70
2023/05/22 06:05:20;;;;;;;;;;;;;;;;;;5097177;28;20431;-70
2023/05/22 06:07:47;;;;;;;;;;;;;;;;;;5097112;28;20038;-70
2023/05/22 06:10:13;;;;;;;;;;;;;;;;;;5097671;28;19955;-70
2023/05/22 06:12:39;;;;;;;;;;;;;;;;;;5097296;28;19955;-70
2023/05/22 06:15:06;;;;;;;;;;;;;;;;;;5097020;28;19959;-70
2023/05/22 06:17:32;;;;;;;;;;;;;;;;;;5097217;28;19962;-70
2023/05/22 06:19:57;;;;;;;;;;;;;;;;;;5096902;28;19957;-70
2023/05/22 06:22:24;;;;;;;;;;;;;;;;;;5097419;28;19963;-70
2023/05/22 06:24:50;;;;;;;;;;;;;;;;;;5096737;28;19986;-70
2023/05/22 06:27:16;;;;;;;;;;;;;;;;;;5097037;28;19955;-70
2023/05/22 06:29:42;;;;;;;;;;;;;;;;;;5096699;28;20411;-70
2023/05/22 06:32:08;;;;;;;;;;;;;;;;;;5096660;28;19975;-70
2023/05/22 06:34:34;;;;;;;;;;;;;;;;;;5096975;28;19998;-70
2023/05/22 06:37:00;;;;;;;;;;;;;;;;;;5097075;28;19955;-71
2023/05/22 06:39:26;;;;;;;;;;;;;;;;;;5095800;28;19993;-70
2023/05/22 06:41:52;;;;;;;;;;;;;;;;;;5097099;28;20407;-70
2023/05/22 06:44:19;;;;;;;;;;;;;;;;;;5096655;28;19978;-70
2023/05/22 06:46:45;;;;;;;;;;;;;;;;;;5096396;28;19994;-70
2023/05/22 06:49:11;;;;;;;;;;;;;;;;;;5096702;28;20468;-71
2023/05/22 06:51:37;;;;;;;;;;;;;;;;;;5099066;28;19998;-76
2023/05/22 06:54:05;;;;;;;;;;;;;;;;;;5098057;28;19993;-72
2023/05/22 06:56:31;;;;;;;;;;;;;;;;;;5117047;28;20041;-72
2023/05/22 06:58:57;;;;;;;;;;;;;;;;;;5116784;28;19998;-74
2023/05/22 07:01:23;;;;;;;;;;;;;;;;;;5115889;28;19963;-71
2023/05/22 07:03:49;;;;;;;;;;;;;;;;;;5116196;28;19975;-70
2023/05/22 07:06:16;;;;;;;;;;;;;;;;;;5116650;28;19967;-70
2023/05/22 07:08:42;;;;;;;;;;;;;;;;;;5116244;28;19955;-71
2023/05/22 07:11:08;;;;;;;;;;;;;;;;;;5115292;28;19982;-72
2023/05/22 07:13:35;;;;;;;;;;;;;;;;;;5115791;28;20019;-72
2023/05/22 07:16:01;;;;;;;;;;;;;;;;;;5115742;28;20413;-70
2023/05/22 07:18:27;;;;;;;;;;;;;;;;;;5115937;28;20001;-74
2023/05/22 07:20:52;;;;;;;;;;;;;;;;;;5115922;28;19961;-72
2023/05/22 07:23:18;;;;;;;;;;;;;;;;;;5115181;28;20448;-73
2023/05/22 07:25:44;;;;;;;;;;;;;;;;;;5115348;28;19959;-74
2023/05/22 07:28:10;;;;;;;;;;;;;;;;;;5115620;28;20451;-72
2023/05/22 07:30:36;;;;;;;;;;;;;;;;;;5115653;28;20031;-71
2023/05/22 07:33:02;;;;;;;;;;;;;;;;;;5115154;28;19962;-72
2023/05/22 07:35:28;;;;;;;;;;;;;;;;;;5114629;28;20505;-71
2023/05/22 07:37:54;;;;;;;;;;;;;;;;;;5115038;28;19963;-70
2023/05/22 07:40:20;;;;;;;;;;;;;;;;;;5114756;28;20463;-73
2023/05/22 07:42:45;;;;;;;;;;;;;;;;;;5114745;28;19955;-74
2023/05/22 07:45:11;;;;;;;;;;;;;;;;;;5114325;28;20509;-74
2023/05/22 07:47:37;;;;;;;;;;;;;;;;;;5115424;28;19959;-74
2023/05/22 07:50:03;;;;;;;;;;;;;;;;;;5113431;28;20088;-73
2023/05/22 07:52:30;;;;;;;;;;;;;;;;;;5113978;28;20432;-69
2023/05/22 07:54:56;;;;;;;;;;;;;;;;;;5115408;28;20305;-67
2023/05/22 07:57:22;;;;;;;;;;;;;;;;;;5115326;28;20007;-69
2023/05/22 07:59:48;;;;;;;;;;;;;;;;;;5110501;28;20009;-70
2023/05/22 08:02:13;;;;;;;;;;;;;;;;;;5105653;28;20508;-68
2023/05/22 08:04:39;;;;;;;;;;;;;;;;;;5114688;28;20348;-68
2023/05/22 08:07:05;;;;;;;;;;;;;;;;;;5115500;28;19955;-69
2023/05/22 08:09:31;;;;;;;;;;;;;;;;;;5114832;28;20070;-69
2023/05/22 08:11:57;;;;;;;;;;;;;;;;;;5115182;28;20344;-70
2023/05/22 08:14:23;;;;;;;;;;;;;;;;;;5114389;28;19963;-71
2023/05/22 08:16:49;;;;;;;;;;;;;;;;;;5114337;28;19962;-74
2023/05/22 08:19:15;;;;;;;;;;;;;;;;;;5114219;28;19963;-81
2023/05/22 08:21:41;;;;;;;;;;;;;;;;;;5096704;28;20049;-80
2023/05/22 08:24:07;;;;;;;;;;;;;;;;;;5114822;28;19975;-80
2023/05/22 08:26:33;;;;;;;;;;;;;;;;;;5115447;28;20028;-82
2023/05/22 08:28:59;;;;;;;;;;;;;;;;;;5115166;28;19955;-80
2023/05/22 08:31:26;;;;;;;;;;;;;;;;;;5115264;28;20062;-80
2023/05/22 08:33:52;;;;;;;;;;;;;;;;;;5112568;28;19963;-66
2023/05/22 08:36:19;;;;;;;;;;;;;;;;;;5113947;28;19973;-71
2023/05/22 08:38:44;;;;;;;;;;;;;;;;;;5115182;28;20419;-67
2023/05/22 08:41:10;;;;;;;;;;;;;;;;;;5114192;28;19990;-66
2023/05/22 08:43:36;;;;;;;;;;;;;;;;;;5113802;28;19974;-71
2023/05/22 08:46:02;;;;;;;;;;;;;;;;;;5112903;28;20015;-73
2023/05/22 08:48:28;;;;;;;;;;;;;;;;;;5095401;28;19998;-73
2023/05/22 08:50:56;;;;;;;;;;;;;;;;;;5112969;28;20018;-72
2023/05/22 08:53:22;;;;;;;;;;;;;;;;;;5113561;28;20012;-72
2023/05/22 08:55:48;;;;;;;;;;;;;;;;;;5113368;28;20418;-72
2023/05/22 08:58:15;;;;;;;;;;;;;;;;;;5112862;28;20000;-70
2023/05/22 09:00:41;;;;;;;;;;;;;;;;;;5113001;28;19959;-68
2023/05/22 09:03:08;;;;;;;;;;;;;;;;;;5114089;28;19982;-67
2023/05/22 09:05:35;;;;;;;;;;;;;;;;;;5114045;28;19970;-66
2023/05/22 09:08:01;;;;;;;;;;;;;;;;;;5114566;28;19970;-66
2023/05/22 09:10:27;;;;;;;;;;;;;;;;;;5114134;28;19967;-66
2023/05/22 09:12:52;;;;;;;;;;;;;;;;;;5114178;28;20046;-65
2023/05/22 09:15:20;;;;;;;;;;;;;;;;;;5113463;28;19969;-67
2023/05/22 09:17:45;;;;;;;;;;;;;;;;;;5114403;28;20286;-70
2023/05/22 09:20:14;;;;;;;;;;;;;;;;;;5113873;28;19962;-66
2023/05/22 09:22:40;;;;;;;;;;;;;;;;;;5113428;28;20004;-66
2023/05/22 09:25:06;;;;;;;;;;;;;;;;;;5114111;28;20355;-66
2023/05/22 09:27:32;;;;;;;;;;;;;;;;;;5112101;28;19959;-66
2023/05/22 09:29:58;;;;;;;;;;;;;;;;;;5110772;28;19969;-67
2023/05/22 09:32:24;;;;;;;;;;;;;;;;;;5112490;28;19978;-67
2023/05/22 09:34:50;;;;;;;;;;;;;;;;;;5112137;28;19963;-67
2023/05/22 09:37:16;;;;;;;;;;;;;;;;;;5113073;28;19962;-68
2023/05/22 09:39:42;;;;;;;;;;;;;;;;;;5112439;28;19991;-69
2023/05/22 09:42:11;;;;;;;;;;;;;;;;;;5113599;28;19967;-66
2023/05/22 09:44:37;;;;;;;;;;;;;;;;;;5113515;28;19975;-66
2023/05/22 09:47:03;;;;;;;;;;;;;;;;;;5113044;28;19962;-65
2023/05/22 09:49:29;;;;;;;;;;;;;;;;;;5113890;28;20508;-65
2023/05/22 09:51:55;;;;;;;;;;;;;;;;;;5112737;28;19959;-66
2023/05/22 09:54:21;;;;;;;;;;;;;;;;;;5113433;28;19994;-66
2023/05/22 09:56:47;;;;;;;;;;;;;;;;;;5112812;28;19959;-65
2023/05/22 09:59:13;;;;;;;;;;;;;;;;;;5094725;28;19966;-66
2023/05/22 10:01:39;;;;;;;;;;;;;;;;;;5113686;28;19962;-66
2023/05/22 10:04:05;;;;;;;;;;;;;;;;;;5113800;28;20378;-66
2023/05/22 10:06:33;;;;;;;;;;;;;;;;;;5114250;28;20340;-66
2023/05/22 10:08:59;;;;;;;;;;;;;;;;;;5113179;28;20004;-66
2023/05/22 10:11:25;;;;;;;;;;;;;;;;;;5112596;28;19958;-66
2023/05/22 10:13:51;;;;;;;;;;;;;;;;;;5115428;28;19955;-66
2023/05/22 10:16:17;;;;;;;;;;;;;;;;;;5116773;28;20045;-66
2023/05/22 10:18:43;;;;;;;;;;;;;;;;;;5095276;28;20020;-68
2023/05/22 10:21:08;;;;;;;;;;;;;;;;;;5116063;28;19962;-70
2023/05/22 10:23:34;;;;;;;;;;;;;;;;;;5116527;28;20455;-70
2023/05/22 10:26:00;;;;;;;;;;;;;;;;;;5096483;28;20000;-70
2023/05/22 10:28:26;;;;;;;;;;;;;;;;;;5096164;28;19955;-70
2023/05/22 10:30:52;;;;;;;;;;;;;;;;;;5096032;28;19978;-70
2023/05/22 10:33:18;;;;;;;;;;;;;;;;;;5096347;28;19959;-68
2023/05/22 10:35:44;;;;;;;;;;;;;;;;;;5096206;28;19955;-68
2023/05/22 10:38:10;;;;;;;;;;;;;;;;;;5117387;28;20045;-75
2023/05/22 10:40:36;;;;;;;;;;;;;;;;;;5116762;28;20030;-76
2023/05/22 10:43:02;;;;;;;;;;;;;;;;;;5116803;28;20065;-75
2023/05/22 10:45:28;;;;;;;;;;;;;;;;;;5117098;28;19959;-76
2023/05/22 10:47:54;;;;;;;;;;;;;;;;;;5116823;28;20437;-75
2023/05/22 10:50:20;;;;;;;;;;;;;;;;;;5117070;28;19959;-76
2023/05/22 10:52:46;;;;;;;;;;;;;;;;;;5116976;28;19962;-76
2023/05/22 10:55:12;;;;;;;;;;;;;;;;;;5116671;28;19955;-76
2023/05/22 10:57:38;;;;;;;;;;;;;;;;;;5117163;28;20443;-76
2023/05/22 11:00:04;;;;;;;;;;;;;;;;;;5098224;28;20008;-76
2023/05/22 11:02:30;;;;;;;;;;;;;;;;;;5098217;28;20057;-76
2023/05/22 11:04:56;;;;;;;;;;;;;;;;;;5116947;28;20447;-75
2023/05/22 11:07:22;;;;;;;;;;;;;;;;;;5116430;28;20028;-75
2023/05/22 11:09:48;;;;;;;;;;;;;;;;;;5116760;28;19959;-75
2023/05/22 11:12:17;;;;;;;;;;;;;;;;;;5116306;28;20045;-75
2023/05/22 11:14:43;;;;;;;;;;;;;;;;;;5116929;28;19961;-74
2023/05/22 11:17:08;;;;;;;;;;;;;;;;;;5116242;28;20386;-76
2023/05/22 11:19:34;;;;;;;;;;;;;;;;;;5097699;28;19959;-75
2023/05/22 11:22:01;;;;;;;;;;;;;;;;;;5097852;28;19959;-75
2023/05/22 11:24:27;;;;;;;;;;;;;;;;;;5116059;28;20420;-75
2023/05/22 11:26:53;;;;;;;;;;;;;;;;;;5097733;28;19958;-76
2023/05/22 11:29:19;;;;;;;;;;;;;;;;;;5116260;28;20112;-75
2023/05/22 11:31:45;;;;;;;;;;;;;;;;;;5115876;28;20484;-75
2023/05/22 11:34:11;;;;;;;;;;;;;;;;;;5115892;28;19955;-76
2023/05/22 11:36:37;;;;;;;;;;;;;;;;;;5116140;28;19978;-76
2023/05/22 11:39:03;;;;;;;;;;;;;;;;;;5116165;28;19954;-76
2023/05/22 11:41:29;;;;;;;;;;;;;;;;;;5116348;28;19962;-74
2023/05/22 11:43:55;;;;;;;;;;;;;;;;;;5097342;28;19985;-75
2023/05/22 11:46:21;;;;;;;;;;;;;;;;;;5116226;28;19955;-75
2023/05/22 11:48:47;;;;;;;;;;;;;;;;;;5115854;28;19955;-76
2023/05/22 11:51:13;;;;;;;;;;;;;;;;;;5115835;28;19961;-75
2023/05/22 11:53:39;;;;;;;;;;;;;;;;;;5115489;28;19962;-76
2023/05/22 11:56:05;;;;;;;;;;;;;;;;;;5115681;28;20388;-76
2023/05/22 11:58:31;;;;;;;;;;;;;;;;;;5115421;28;19955;-75
2023/05/22 12:00:57;;;;;;;;;;;;;;;;;;5115370;28;20382;-76
2023/05/22 12:03:23;;;;;;;;;;;;;;;;;;5115280;28;19974;-76
2023/05/22 12:05:49;;;;;;;;;;;;;;;;;;5115553;28;19955;-76
2023/05/22 12:08:15;;;;;;;;;;;;;;;;;;5115224;28;19955;-76
2023/05/22 12:10:41;;;;;;;;;;;;;;;;;;5115204;28;20007;-76
2023/05/22 12:13:07;;;;;;;;;;;;;;;;;;5115121;28;19994;-75
2023/05/22 12:15:33;;;;;;;;;;;;;;;;;;5113653;28;19955;-73
2023/05/22 12:17:59;;;;;;;;;;;;;;;;;;5114593;28;20441;-74
2023/05/22 12:20:25;;;;;;;;;;;;;;;;;;5114297;28;19959;-66
2023/05/22 12:22:51;;;;;;;;;;;;;;;;;;5114898;28;19959;-70
2023/05/22 12:25:17;;;;;;;;;;;;;;;;;;5114413;28;20317;-68
2023/05/22 12:27:43;;;;;;;;;;;;;;;;;;5115140;28;19966;-69
2023/05/22 12:30:09;;;;;;;;;;;;;;;;;;5106434;28;19955;-70
2023/05/22 12:32:35;;;;;;;;;;;;;;;;;;5094377;28;20357;-68
2023/05/22 12:35:01;;;;;;;;;;;;;;;;;;5094367;28;19962;-67
2023/05/22 12:37:30;;;;;;;;;;;;;;;;;;5094338;28;19978;-68
2023/05/22 12:39:56;;;;;;;;;;;;;;;;;;5094134;28;20097;-68
2023/05/22 12:42:22;;;;;;;;;;;;;;;;;;5094535;28;19999;-69
2023/05/22 12:44:49;;;;;;;;;;;;;;;;;;5094165;28;20048;-70
2023/05/22 12:47:15;;;;;;;;;;;;;;;;;;5099718;28;19970;-70
2023/05/22 12:49:41;;;;;;;;;;;;;;;;;;5084771;28;19959;-70
2023/05/22 12:52:06;;;;;;;;;;;;;;;;;;5094127;28;19955;-72
2023/05/22 12:54:32;;;;;;;;;;;;;;;;;;5093490;28;19958;-73
2023/05/22 12:56:58;;;;;;;;;;;;;;;;;;5114364;28;20054;-71
2023/05/22 12:59:24;;;;;;;;;;;;;;;;;;5095789;28;19959;-68
2023/05/22 13:01:50;;;;;;;;;;;;;;;;;;5114875;28;20370;-70
2023/05/22 13:04:16;;;;;;;;;;;;;;;;;;5114511;28;20029;-70
2023/05/22 13:06:42;;;;;;;;;;;;;;;;;;5096239;28;19958;-69
2023/05/22 13:09:08;;;;;;;;;;;;;;;;;;5093880;28;20015;-67
2023/05/22 13:11:34;;;;;;;;;;;;;;;;;;5093815;28;19960;-69
2023/05/22 13:14:00;;;;;;;;;;;;;;;;;;5094350;28;19987;-68
2023/05/22 13:16:26;;;;;;;;;;;;;;;;;;5093729;28;19964;-69
2023/05/22 13:18:52;;;;;;;;;;;;;;;;;;5093737;28;19961;-68
2023/05/22 13:21:18;;;;;;;;;;;;;;;;;;5093965;28;19959;-69
2023/05/22 13:23:44;;;;;;;;;;;;;;;;;;5103283;28;20009;-69
2023/05/22 13:26:10;;;;;;;;;;;;;;;;;;5114085;28;20034;-69
2023/05/22 13:28:36;;;;;;;;;;;;;;;;;;5099979;28;20386;-69
2023/05/22 13:31:02;;;;;;;;;;;;;;;;;;5113787;28;20459;-70
2023/05/22 13:33:28;;;;;;;;;;;;;;;;;;5114345;28;19959;-69
2023/05/22 13:35:54;;;;;;;;;;;;;;;;;;5114217;28;19962;-70
2023/05/22 13:38:20;;;;;;;;;;;;;;;;;;5114493;28;19955;-70
2023/05/22 13:40:45;;;;;;;;;;;;;;;;;;5113700;28;19997;-70
2023/05/22 13:43:11;;;;;;;;;;;;;;;;;;5113779;28;20081;-70
2023/05/22 13:45:37;;;;;;;;;;;;;;;;;;5113842;28;19955;-71
2023/05/22 13:48:03;;;;;;;;;;;;;;;;;;5114458;28;19955;-70
2023/05/22 13:50:29;;;;;;;;;;;;;;;;;;5118237;28;19976;-71
2023/05/22 13:52:55;;;;;;;;;;;;;;;;;;5118153;28;19959;-70
2023/05/22 13:55:21;;;;;;;;;;;;;;;;;;5118434;28;19955;-70
2023/05/22 13:57:47;;;;;;;;;;;;;;;;;;5117780;28;20050;-70
2023/05/22 14:00:13;;;;;;;;;;;;;;;;;;5117775;28;20004;-71
2023/05/22 14:02:39;;;;;;;;;;;;;;;;;;5117745;28;20111;-70
2023/05/22 14:05:05;;;;;;;;;;;;;;;;;;5118175;28;20014;-70
2023/05/22 14:07:31;;;;;;;;;;;;;;;;;;5117637;28;19954;-70
2023/05/22 14:09:57;;;;;;;;;;;;;;;;;;5099279;28;19966;-70
2023/05/22 14:12:23;;;;;;;;;;;;;;;;;;5117840;28;19961;-70
2023/05/22 14:14:48;;;;;;;;;;;;;;;;;;5117767;28;19963;-70
2023/05/22 14:17:14;;;;;;;;;;;;;;;;;;5117495;28;20096;-70
2023/05/22 14:19:41;;;;;;;;;;;;;;;;;;5117447;28;19955;-70
2023/05/22 14:22:06;;;;;;;;;;;;;;;;;;5117977;28;19955;-70
2023/05/22 14:24:32;;;;;;;;;;;;;;;;;;5117213;28;20074;-70
2023/05/22 14:26:58;;;;;;;;;;;;;;;;;;5117289;28;19959;-71
2023/05/22 14:29:24;;;;;;;;;;;;;;;;;;5117207;28;19955;-70
2023/05/22 14:31:50;;;;;;;;;;;;;;;;;;5117102;28;19971;-70
2023/05/22 14:34:16;;;;;;;;;;;;;;;;;;5117444;28;19955;-70
2023/05/22 14:36:42;;;;;;;;;;;;;;;;;;5117116;28;20009;-70
2023/05/22 14:39:08;;;;;;;;;;;;;;;;;;5117594;28;19966;-70
2023/05/22 14:41:34;;;;;;;;;;;;;;;;;;5117202;28;20000;-70
2023/05/22 14:44:00;;;;;;;;;;;;;;;;;;5116861;28;20393;-70
2023/05/22 14:46:25;;;;;;;;;;;;;;;;;;5116864;28;19962;-70
2023/05/22 14:48:51;;;;;;;;;;;;;;;;;;5117101;28;20324;-70
2023/05/22 14:51:17;;;;;;;;;;;;;;;;;;5116782;28;19955;-70
2023/05/22 14:53:43;;;;;;;;;;;;;;;;;;5116717;28;20001;-70
2023/05/22 14:56:09;;;;;;;;;;;;;;;;;;5117231;28;19963;-70
2023/05/22 14:58:35;;;;;;;;;;;;;;;;;;5116689;28;19955;-70
2023/05/22 15:01:01;;;;;;;;;;;;;;;;;;5116437;28;20351;-70
2023/05/22 15:03:27;;;;;;;;;;;;;;;;;;5116466;28;19979;-70
2023/05/22 15:05:53;;;;;;;;;;;;;;;;;;5116757;28;19962;-70
2023/05/22 15:08:19;;;;;;;;;;;;;;;;;;5116737;28;19955;-70
2023/05/22 15:10:45;;;;;;;;;;;;;;;;;;5116946;28;19962;-70
2023/05/22 15:13:12;;;;;;;;;;;;;;;;;;5116338;28;19955;-70
2023/05/22 15:15:38;;;;;;;;;;;;;;;;;;5116340;28;19978;-70
2023/05/22 15:18:04;;;;;;;;;;;;;;;;;;5116557;28;19954;-70
2023/05/22 15:20:30;;;;;;;;;;;;;;;;;;5116186;28;19960;-70
2023/05/22 15:22:56;;;;;;;;;;;;;;;;;;5116397;28;20042;-70
2023/05/22 15:25:22;;;;;;;;;;;;;;;;;;5116369;28;19954;-70
2023/05/22 15:27:47;;;;;;;;;;;;;;;;;;5116624;28;20124;-70
2023/05/22 15:30:15;;;;;;;;;;;;;;;;;;5115996;28;20481;-70
2023/05/22 15:32:41;;;;;;;;;;;;;;;;;;5115954;28;20364;-70
2023/05/22 15:35:08;;;;;;;;;;;;;;;;;;5116531;28;19962;-70
2023/05/22 15:37:35;;;;;;;;;;;;;;;;;;5115866;28;19954;-70
2023/05/22 15:40:01;;;;;;;;;;;;;;;;;;5116161;28;19990;-70
2023/05/22 15:42:27;;;;;;;;;;;;;;;;;;5116042;28;19955;-70
2023/05/22 15:44:53;;;;;;;;;;;;;;;;;;5115653;28;20562;-70
2023/05/22 15:47:19;;;;;;;;;;;;;;;;;;5115953;28;19962;-70
2023/05/22 15:49:45;;;;;;;;;;;;;;;;;;5115629;28;20333;-70
2023/05/22 15:52:11;;;;;;;;;;;;;;;;;;5116211;28;19955;-70
2023/05/22 15:54:37;;;;;;;;;;;;;;;;;;5115598;28;19955;-70
2023/05/22 15:57:03;;;;;;;;;;;;;;;;;;5116376;28;20404;-70
2023/05/22 15:59:29;;;;;;;;;;;;;;;;;;5115755;28;20037;-70
2023/05/22 16:01:55;;;;;;;;;;;;;;;;;;5115451;28;19997;-70
2023/05/22 16:04:21;;;;;;;;;;;;;;;;;;5115595;28;19981;-70
2023/05/22 16:06:47;;;;;;;;;;;;;;;;;;5115589;28;20001;-70
2023/05/22 16:09:15;;;;;;;;;;;;;;;;;;5096815;28;19966;-70
2023/05/22 16:11:40;;;;;;;;;;;;;;;;;;5114477;28;19955;-70
2023/05/22 16:14:06;;;;;;;;;;;;;;;;;;5115152;28;20057;-70
2023/05/22 16:16:32;;;;;;;;;;;;;;;;;;5115131;28;19954;-70
2023/05/22 16:18:58;;;;;;;;;;;;;;;;;;5115315;28;19958;-70
2023/05/22 16:21:24;;;;;;;;;;;;;;;;;;5115328;28;19954;-70
2023/05/22 16:23:50;;;;;;;;;;;;;;;;;;5114794;28;19975;-70
2023/05/22 16:26:16;;;;;;;;;;;;;;;;;;5114929;28;19954;-67
2023/05/22 16:28:42;;;;;;;;;;;;;;;;;;5115361;28;19955;-67
2023/05/22 16:31:08;;;;;;;;;;;;;;;;;;5114743;28;20211;-67
2023/05/22 16:33:36;;;;;;;;;;;;;;;;;;5114800;28;19960;-67
2023/05/22 16:36:02;;;;;;;;;;;;;;;;;;5115035;28;20320;-67
2023/05/22 16:38:28;;;;;;;;;;;;;;;;;;5115504;28;20006;-67